Latest Weather Observations for Adelaide (West Terrace / ngayirdapira)

IDS60901

Issued at 9:21 pm CDT Friday 13 December 2019 (issued every 10 minutes, with the page automatically refreshed every 10 minutes)

About weather observations | Map of Adelaide area stations | Latest observations for Adelaide area | Other Formats
Station Details ID: 023000 Name: ADELAIDE (WEST TERRACE / NGAYIRDAPIRA) Lat: -34.93 Lon: 138.58 Height: 29.32 m
Data from the previous 72 hours. | See also: Recent months at Adelaide (West Terrace / ngayirdapira)
Date/Time
CDT
Temp
°C
App
Temp
°C
Dew
Point
°C
Rel
Hum
%
Delta-T
°C
Wind Press
QNH
hPa
Press
MSL
hPa
Rain since
9am
mm
Dir  Spd
km/h
Gust
km/h
Spd
kts
Gust
kts
13/09:00pm 17.0 14.1 9.7 62 3.8 S 15 24 8 13 1019.9 1019.8 0.0
13/08:30pm 17.7 15.2 9.8 60 4.2 SSW 13 22 7 12 1019.7 1019.6 0.0
13/08:00pm 17.8 15.7 11.1 65 3.6 SSW 13 19 7 10 1019.7 1019.6 0.0
13/07:30pm 18.2 15.3 11.0 63 3.9 SSW 17 26 9 14 1019.8 1019.7 0.0
13/07:00pm 18.6 15.2 11.2 62 4.0 SW 20 33 11 18 1019.5 1019.4 0.0
13/06:30pm 18.7 14.9 11.0 61 4.2 SW 22 33 12 18 1019.3 1019.2 0.0
13/06:00pm 19.8 16.6 11.3 58 4.7 SW 19 35 10 19 1019.4 1019.3 0.0
13/05:30pm 18.9 15.2 10.2 57 4.6 SW 20 35 11 19 1019.6 1019.5 0.0
13/05:00pm 19.4 15.7 10.1 55 5.0 SW 20 37 11 20 1019.7 1019.6 0.0
13/04:30pm 19.6 15.5 10.0 54 5.1 SW 22 37 12 20 1019.9 1019.8 0.0
13/04:00pm 19.4 15.1 9.3 52 5.3 SW 22 35 12 19 1020.1 1020.0 0.0
13/03:30pm 19.4 15.5 9.6 53 5.2 SW 20 32 11 17 1020.4 1020.3 0.0
13/03:00pm 19.3 15.7 10.0 55 5.0 WSW 19 28 10 15 1020.6 1020.5 0.0
13/02:30pm 19.1 15.4 9.3 53 5.2 WSW 19 28 10 15 1020.7 1020.6 0.0
13/02:00pm 19.5 16.2 9.4 52 5.3 WSW 17 32 9 17 1021.0 1020.9 0.0
13/01:30pm 18.9 15.4 8.8 52 5.3 WSW 17 24 9 13 1021.1 1021.0 0.0
13/01:00pm 17.8 13.8 8.4 54 4.8 WSW 19 28 10 15 1021.4 1021.3 0.0
13/12:30pm 18.7 14.7 8.4 51 5.3 WSW 19 30 10 16 1021.6 1021.5 0.0
13/12:00pm 18.6 14.9 8.0 50 5.4 SW 17 28 9 15 1021.8 1021.7 0.0
13/11:30am 18.3 14.4 8.6 53 5.0 WSW 19 28 10 15 1022.0 1021.9 0.0
13/11:00am 18.4 14.7 7.8 50 5.4 WSW 17 26 9 14 1022.0 1021.9 0.0
13/10:30am 18.2 15.1 8.7 54 4.9 SW 15 22 8 12 1022.1 1022.0 0.0
13/10:00am 18.9 16.7 7.7 48 5.7 S 9 17 5 9 1022.4 1022.3 0.0
13/09:30am 16.4 13.5 6.5 52 4.8 SW 11 19 6 10 1022.6 1022.5 0.0
13/09:00am 15.9 13.5 6.9 55 4.4 S 9 19 5 10 1022.7 1022.6 0.0
13/08:30am 15.6 12.0 6.9 56 4.3 S 15 24 8 13 1022.8 1022.7 0.0
13/08:00am 15.2 12.3 6.5 56 4.2 S 11 17 6 9 1022.5 1022.4 0.0
13/07:30am 15.0 12.6 6.8 58 4.0 S 9 15 5 8 1022.3 1022.2 0.0
13/07:00am 14.7 12.3 6.8 59 3.9 SSW 9 17 5 9 1022.0 1021.9 0.0
13/06:30am 14.3 11.8 6.6 60 3.7 SSW 9 13 5 7 1021.6 1021.5 0.0
13/06:00am 14.2 11.8 6.8 61 3.6 S 9 15 5 8 1021.7 1021.6 0.0
13/05:30am 14.0 11.6 6.8 62 3.5 SSE 9 13 5 7 1021.6 1021.5 0.0
13/05:00am 14.1 11.6 6.7 61 3.6 S 9 19 5 10 1021.8 1021.7 0.0
13/04:30am 14.0 11.6 6.8 62 3.5 S 9 19 5 10 1021.6 1021.5 0.0
13/04:00am 12.9 11.0 6.9 67 2.9 S 6 9 3 5 1021.7 1021.6 0.0
13/03:30am 13.3 10.8 6.6 64 3.2 S 9 15 5 8 1021.8 1021.7 0.0
13/03:00am 13.6 10.7 6.7 63 3.3 S 11 19 6 10 1022.0 1021.9 0.0
13/02:30am 13.7 10.5 7.0 64 3.2 S 13 19 7 10 1022.2 1022.1 0.0
13/02:00am 13.9 11.3 7.7 66 3.1 S 11 19 6 10 1022.3 1022.2 0.0
13/01:30am 13.2 11.3 7.4 68 2.8 S 7 11 4 6 1022.5 1022.4 0.0
13/01:00am 13.5 10.8 7.3 66 3.0 S 11 19 6 10 1022.8 1022.7 0.0
13/12:30am 13.4 10.3 7.4 67 2.9 S 13 20 7 11 1023.2 1023.1 0.0
13/12:00am 13.5 11.2 7.5 67 2.9 S 9 15 5 8 1023.5 1023.4 0.0
 
Date/Time
CDT
Temp
°C
App
Temp
°C
Dew
Point
°C
Rel
Hum
%
Delta-T
°C
Wind Press
QNH
hPa
Press
MSL
hPa
Rain since
9am
mm
Dir  Spd
km/h
Gust
km/h
Spd
kts
Gust
kts
12/11:30pm 13.9 10.8 7.4 65 3.2 S 13 20 7 11 1023.6 1023.5 0.0
12/11:00pm 14.1 11.0 7.2 63 3.4 S 13 22 7 12 1023.5 1023.4 0.0
12/10:30pm 14.1 11.0 7.2 63 3.4 S 13 22 7 12 1023.5 1023.4 0.0
12/10:00pm 14.4 10.9 7.2 62 3.5 S 15 22 8 12 1023.4 1023.3 0.0
12/09:30pm 14.7 10.8 7.3 61 3.6 S 17 28 9 15 1023.3 1023.2 0.0
12/09:00pm 14.9 11.8 7.2 60 3.8 S 13 24 7 13 1022.8 1022.7 0.0
12/08:30pm 15.7 11.9 7.5 58 4.1 S 17 28 9 15 1023.0 1022.9 0.0
12/08:00pm 16.8 13.0 7.7 55 4.6 SSE 17 24 9 13 1022.3 1022.2 0.0
12/07:30pm 18.9 15.7 7.0 46 6.0 S 13 26 7 14 1022.0 1021.9 0.0
12/07:00pm 19.4 15.7 7.8 47 6.0 S 17 26 9 14 1021.5 1021.4 0.0
12/06:30pm 20.2 16.0 7.6 44 6.5 S 19 28 10 15 1021.3 1021.2 0.0
12/06:00pm 21.2 16.7 6.3 38 7.5 S 19 26 10 14 1020.9 1020.8 0.0
12/05:30pm 21.3 17.0 6.8 39 7.4 SW 19 30 10 16 1021.0 1020.9 0.0
12/05:00pm 21.3 16.5 8.9 45 6.6 SW 24 39 13 21 1020.8 1020.7 0.0
12/04:30pm 20.9 16.0 9.8 49 6.0 SW 26 39 14 21 1020.8 1020.7 0.0
12/04:00pm 21.2 16.5 9.4 47 6.3 WSW 24 37 13 20 1020.9 1020.8 0.0
12/03:30pm 21.1 15.7 9.4 47 6.2 SW 28 43 15 23 1020.9 1020.8 0.0
12/03:00pm 21.7 17.2 9.9 47 6.4 WSW 24 39 13 21 1020.9 1020.8 0.0
12/02:30pm 21.5 17.5 9.1 45 6.6 SW 20 35 11 19 1021.0 1020.9 0.0
12/02:00pm 22.0 17.9 7.8 40 7.4 S 19 30 10 16 1021.1 1021.0 0.0
12/01:30pm 23.2 19.6 8.5 39 7.8 S 17 28 9 15 1021.1 1021.0 0.0
12/01:00pm 21.8 17.7 8.0 41 7.2 S 19 26 10 14 1021.3 1021.2 0.0
12/12:30pm 21.4 18.5 8.0 42 7.0 S 13 22 7 12 1021.6 1021.5 0.0
12/12:00pm 21.4 18.5 8.3 43 6.8 S 13 22 7 12 1021.7 1021.6 0.0
12/11:30am 21.1 17.9 8.4 44 6.6 S 15 26 8 14 1021.8 1021.7 0.0
12/11:00am 19.7 16.4 8.1 47 6.0 SSE 15 26 8 14 1022.0 1021.9 0.0
12/10:30am 19.9 16.3 8.3 47 6.0 SSE 17 26 9 14 1022.1 1022.0 0.0
12/10:00am 19.5 16.6 8.2 48 5.8 S 13 24 7 13 1022.3 1022.2 0.0
12/09:30am 18.7 15.9 8.4 51 5.3 S 13 20 7 11 1022.4 1022.3 0.0
12/09:00am 17.9 14.3 8.2 53 5.0 SE 17 24 9 13 1022.1 1022.0 0.0
12/08:30am 17.5 13.6 8.6 56 4.6 S 19 26 10 14 1022.2 1022.1 0.0
12/08:00am 16.0 12.9 9.0 63 3.6 S 15 26 8 14 1021.7 1021.6 0.0
12/07:30am 16.5 14.0 9.7 64 3.5 SSW 13 22 7 12 1021.3 1021.2 0.0
12/07:00am 16.4 14.3 9.6 64 3.5 S 11 15 6 8 1021.1 1021.0 0.0
12/06:30am 16.1 13.8 9.1 63 3.6 SSW 11 15 6 8 1021.2 1021.1 0.0
12/06:00am 15.9 13.3 9.3 65 3.4 S 13 19 7 10 1021.1 1021.0 0.0
12/05:30am 15.7 13.8 9.1 65 3.4 S 9 17 5 9 1020.6 1020.5 0.0
12/05:00am 15.5 12.5 9.2 66 3.2 S 15 24 8 13 1020.3 1020.2 0.0
12/04:30am 15.5 12.2 9.4 67 3.1 S 17 30 9 16 1020.0 1019.9 0.0
12/04:00am 15.5 12.6 9.8 69 3.0 S 15 22 8 12 1020.2 1020.1 0.0
12/03:30am 15.5 12.0 10.1 70 2.8 S 19 32 10 17 1020.3 1020.2 0.0
12/03:00am 15.5 12.8 10.3 71 2.7 S 15 24 8 13 1020.3 1020.2 0.0
12/02:30am 15.3 12.9 9.9 70 2.8 S 13 20 7 11 1020.6 1020.5 0.0
12/02:00am 15.1 12.7 9.9 71 2.7 S 13 22 7 12 1020.8 1020.7 0.0
12/01:30am 15.2 12.7 9.8 70 2.8 S 13 19 7 10 1020.9 1020.8 0.0
12/01:00am 15.1 12.6 9.7 70 2.8 S 13 22 7 12 1021.1 1021.0 0.0
12/12:30am 14.9 11.5 9.3 69 2.9 S 17 24 9 13 1021.3 1021.2 0.0
12/12:00am 14.5 12.2 9.1 70 2.7 S 11 20 6 11 1021.4 1021.3 0.0
 
Date/Time
CDT
Temp
°C
App
Temp
°C
Dew
Point
°C
Rel
Hum
%
Delta-T
°C
Wind Press
QNH
hPa
Press
MSL
hPa
Rain since
9am
mm
Dir  Spd
km/h
Gust
km/h
Spd
kts
Gust
kts
11/11:30pm 14.5 11.5 9.1 70 2.7 S 15 26 8 14 1021.4 1021.3 0.0
11/11:00pm 14.4 11.7 9.0 70 2.7 S 13 22 7 12 1021.3 1021.2 0.0
11/10:30pm 14.5 10.5 8.9 69 2.8 S 20 32 11 17 1021.4 1021.3 0.0
11/10:00pm 14.7 11.9 8.6 67 3.1 S 13 22 7 12 1020.7 1020.6 0.0
11/09:30pm 15.1 12.2 8.3 64 3.4 S 13 22 7 12 1020.4 1020.3 0.0
11/09:00pm 16.3 13.1 8.3 59 4.1 S 15 22 8 12 1020.2 1020.1 0.0
11/08:30pm 16.9 13.6 8.1 56 4.5 SSE 15 28 8 15 1019.7 1019.6 0.0
11/08:00pm 18.4 15.0 7.8 50 5.4 S 15 26 8 14 1019.6 1019.5 0.0
11/07:30pm 20.1 16.6 7.1 43 6.6 S 15 22 8 12 1019.1 1019.0 0.0
11/07:00pm 21.6 18.5 7.1 39 7.4 SSE 13 22 7 12 1018.7 1018.6 0.0
11/06:30pm 21.9 18.0 7.3 39 7.5 SSE 17 28 9 15 1018.4 1018.3 0.0
11/06:00pm 22.3 18.1 7.3 38 7.8 S 19 26 10 14 1018.1 1018.0 0.0
11/05:30pm 22.9 18.5 7.4 37 8.1 S 20 30 11 16 1018.1 1018.0 0.0
11/05:00pm 23.6 19.4 8.1 37 8.2 S 20 30 11 16 1018.0 1017.9 0.0
11/04:30pm 24.0 19.8 7.6 35 8.6 S 19 28 10 15 1018.1 1018.0 0.0
11/04:00pm 24.9 20.5 7.5 33 9.2 SSW 20 28 11 15 1018.2 1018.1 0.0
11/03:30pm 25.6 21.5 7.7 32 9.5 SSW 19 32 10 17 1018.3 1018.2 0.0
11/03:00pm 25.7 22.4 8.2 33 9.4 SSE 15 30 8 16 1018.2 1018.1 0.0
11/02:30pm 25.2 21.6 6.9 31 9.6 SSE 15 24 8 13 1018.3 1018.2 0.0
11/02:00pm 24.8 21.3 7.0 32 9.3 S 15 24 8 13 1018.5 1018.4 0.0
11/01:30pm 25.6 23.3 9.0 35 9.0 SSE 11 24 6 13 1018.6 1018.5 0.0
11/01:00pm 24.6 20.8 7.7 34 8.9 S 17 24 9 13 1018.8 1018.7 0.0
11/12:30pm 24.2 21.2 7.8 35 8.6 S 13 22 7 12 1018.7 1018.6 0.0
11/12:00pm 23.2 20.6 7.7 37 8.1 SE 11 17 6 9 1018.9 1018.8 0.0
11/11:30am 23.1 21.1 7.2 36 8.2 E 7 15 4 8 1019.1 1019.0 0.0
11/11:00am 22.1 20.1 7.1 38 7.7 ENE 7 13 4 7 1019.0 1018.9 0.0
11/10:30am 21.1 19.4 7.7 42 6.9 SSE 6 9 3 5 1019.3 1019.2 0.0
11/10:00am 20.0 18.3 7.7 45 6.3 SSW 6 9 3 5 1019.6 1019.5 0.0
11/09:30am 19.1 17.3 7.8 48 5.8 S 7 11 4 6 1019.6 1019.5 0.0
11/09:00am 18.0 15.8 8.0 52 5.1 SSE 9 13 5 7 1019.7 1019.6 0.0
11/08:30am 16.7 13.8 8.1 57 4.4 SSE 13 17 7 9 1019.7 1019.6 0.0
11/08:00am 16.5 15.8 8.7 60 4.0 W 2 6 1 3 1019.5 1019.4 0.0
11/07:30am 15.4 13.8 8.2 62 3.6 WNW 6 9 3 5 1019.4 1019.3 0.0
11/07:00am 13.9 12.9 8.9 72 2.5 SW 4 9 2 5 1018.9 1018.8 0.0
11/06:30am 11.8 11.5 8.6 81 1.6 CALM 0 0 0 0 1018.7 1018.6 0.0
11/06:00am 11.6 11.2 8.3 80 1.6 CALM 0 6 0 3 1018.5 1018.4 0.0
11/05:30am 11.2 10.8 8.1 81 1.5 CALM 0 0 0 0 1018.2 1018.1 0.0
11/05:00am 11.5 9.9 7.8 78 1.8 SE 6 7 3 4 1018.3 1018.2 0.0
11/04:30am 11.5 11.0 8.0 79 1.7 CALM 0 0 0 0 1018.2 1018.1 0.0
11/04:00am 11.7 10.7 7.4 75 2.1 S 2 6 1 3 1018.3 1018.2 0.0
11/03:30am 13.1 11.5 7.8 70 2.6 SE 6 13 3 7 1018.4 1018.3 0.0
11/03:00am 13.1 11.4 7.5 69 2.7 SSE 6 9 3 5 1018.6 1018.5 0.0
11/02:30am 14.1 13.2 7.9 66 3.1 E 2 7 1 4 1018.7 1018.6 0.0
11/02:00am 13.3 12.1 8.2 71 2.5 NE 4 9 2 5 1018.6 1018.5 0.0
11/01:30am 12.9 12.1 8.0 72 2.4 ENE 2 7 1 4 1018.6 1018.5 0.0
11/01:00am 13.2 12.3 7.6 69 2.7 SSE 2 7 1 4 1018.8 1018.7 0.0
11/12:30am 13.4 11.5 7.6 68 2.8 S 7 9 4 5 1019.1 1019.0 0.0
11/12:00am 13.5 11.8 7.7 68 2.8 S 6 9 3 5 1019.3 1019.2 0.0
 
Date/Time
CDT
Temp
°C
App
Temp
°C
Dew
Point
°C
Rel
Hum
%
Delta-T
°C
Wind Press
QNH
hPa
Press
MSL
hPa
Rain since
9am
mm
Dir  Spd
km/h
Gust
km/h
Spd
kts
Gust
kts
10/11:30pm 13.9 11.7 7.9 67 3.0 S 9 13 5 7 1019.5 1019.4 0.0
10/11:00pm 14.4 12.0 7.2 62 3.5 SSE 9 13 5 7 1019.6 1019.5 0.0
10/10:30pm 14.7 12.1 7.7 63 3.5 S 11 15 6 8 1019.6 1019.5 0.0
10/10:00pm 14.8 12.2 7.6 62 3.6 S 11 19 6 10 1019.5 1019.4 0.0
10/09:30pm 15.2 12.2 7.7 61 3.7 S 13 17 7 9 1019.4 1019.3 0.0

Latest Capital City Observations: Canberra | Sydney | Melbourne | Brisbane | Adelaide | Perth | Hobart | Darwin

Other formats

Comma delimited format used in spreadsheet applications
http://www.bom.gov.au/fwo/IDS60901/IDS60901.94648.axf

JavaScript Object Notation format (JSON) in row-major order
http://www.bom.gov.au/fwo/IDS60901/IDS60901.94648.json

Data quality

Most of these data are generated automatically and are frequently updated. Quality checks on data are not normally performed. It is possible for incorrect values to appear. Refer to information at About Latest Weather Observations and please check the disclaimer before using these data.